sensor_id;sensor_type;location;lat;lon;timestamp;pressure;altitude;pressure_sealevel;temperature;humidity
58385;BME280;44185;47.844;8.966;2023-05-11T00:00:42;96002.31;;;9.49;100.00
58385;BME280;44185;47.844;8.966;2023-05-11T00:03:07;96003.25;;;9.48;100.00
58385;BME280;44185;47.844;8.966;2023-05-11T00:05:32;95994.38;;;9.49;100.00
58385;BME280;44185;47.844;8.966;2023-05-11T00:07:59;96002.06;;;9.52;100.00
58385;BME280;44185;47.844;8.966;2023-05-11T00:10:25;95990.91;;;9.49;100.00
58385;BME280;44185;47.844;8.966;2023-05-11T00:12:51;95989.22;;;9.48;100.00
58385;BME280;44185;47.844;8.966;2023-05-11T00:15:17;95989.63;;;9.43;100.00
58385;BME280;44185;47.844;8.966;2023-05-11T00:17:43;95981.13;;;9.39;100.00
58385;BME280;44185;47.844;8.966;2023-05-11T00:20:09;95987.13;;;9.41;100.00
58385;BME280;44185;47.844;8.966;2023-05-11T00:22:34;95981.69;;;9.43;100.00
58385;BME280;44185;47.844;8.966;2023-05-11T00:25:01;95985.44;;;9.40;100.00
58385;BME280;44185;47.844;8.966;2023-05-11T00:27:27;95979.06;;;9.43;100.00
58385;BME280;44185;47.844;8.966;2023-05-11T00:29:52;95977.56;;;9.50;100.00
58385;BME280;44185;47.844;8.966;2023-05-11T00:32:18;95973.69;;;9.54;100.00
58385;BME280;44185;47.844;8.966;2023-05-11T00:34:43;95965.88;;;9.53;100.00
58385;BME280;44185;47.844;8.966;2023-05-11T00:37:08;95964.34;;;9.50;100.00
58385;BME280;44185;47.844;8.966;2023-05-11T00:39:34;95969.50;;;9.52;100.00
58385;BME280;44185;47.844;8.966;2023-05-11T00:42:01;95973.94;;;9.51;100.00
58385;BME280;44185;47.844;8.966;2023-05-11T00:44:26;95963.25;;;9.53;100.00
58385;BME280;44185;47.844;8.966;2023-05-11T00:46:51;95960.22;;;9.57;100.00
58385;BME280;44185;47.844;8.966;2023-05-11T00:49:17;95960.59;;;9.53;100.00
58385;BME280;44185;47.844;8.966;2023-05-11T00:51:42;95956.56;;;9.49;100.00
58385;BME280;44185;47.844;8.966;2023-05-11T00:54:08;95963.72;;;9.58;100.00
58385;BME280;44185;47.844;8.966;2023-05-11T00:56:34;95960.09;;;9.59;100.00
58385;BME280;44185;47.844;8.966;2023-05-11T00:59:01;95964.78;;;9.55;100.00
58385;BME280;44185;47.844;8.966;2023-05-11T01:01:26;95958.69;;;9.55;100.00
58385;BME280;44185;47.844;8.966;2023-05-11T01:03:52;95953.78;;;9.50;100.00
58385;BME280;44185;47.844;8.966;2023-05-11T01:06:26;95964.63;;;9.47;100.00
58385;BME280;44185;47.844;8.966;2023-05-11T01:08:55;95963.53;;;9.50;100.00
58385;BME280;44185;47.844;8.966;2023-05-11T01:11:31;95965.19;;;9.51;100.00
58385;BME280;44185;47.844;8.966;2023-05-11T01:14:03;95960.75;;;9.51;100.00
58385;BME280;44185;47.844;8.966;2023-05-11T01:16:34;95976.50;;;9.63;100.00
58385;BME280;44185;47.844;8.966;2023-05-11T01:19:10;95967.16;;;9.59;100.00
58385;BME280;44185;47.844;8.966;2023-05-11T01:21:38;95969.94;;;9.57;100.00
58385;BME280;44185;47.844;8.966;2023-05-11T01:24:30;95967.88;;;9.61;100.00
58385;BME280;44185;47.844;8.966;2023-05-11T01:27:30;95968.25;;;9.56;100.00
58385;BME280;44185;47.844;8.966;2023-05-11T01:30:31;95969.78;;;9.49;100.00
58385;BME280;44185;47.844;8.966;2023-05-11T01:33:02;95961.19;;;9.56;100.00
58385;BME280;44185;47.844;8.966;2023-05-11T01:35:32;95970.53;;;9.61;100.00
58385;BME280;44185;47.844;8.966;2023-05-11T01:38:00;95970.78;;;9.57;100.00
58385;BME280;44185;47.844;8.966;2023-05-11T01:40:31;95968.53;;;9.53;100.00
58385;BME280;44185;47.844;8.966;2023-05-11T01:43:01;95968.81;;;9.50;100.00
58385;BME280;44185;47.844;8.966;2023-05-11T01:45:32;95967.31;;;9.57;100.00
58385;BME280;44185;47.844;8.966;2023-05-11T01:48:01;95969.00;;;9.58;100.00
58385;BME280;44185;47.844;8.966;2023-05-11T01:50:28;95971.91;;;9.55;100.00
58385;BME280;44185;47.844;8.966;2023-05-11T01:52:56;95969.25;;;9.55;100.00
58385;BME280;44185;47.844;8.966;2023-05-11T01:55:22;95973.09;;;9.51;100.00
58385;BME280;44185;47.844;8.966;2023-05-11T01:57:51;95969.81;;;9.59;100.00
58385;BME280;44185;47.844;8.966;2023-05-11T02:00:17;95976.25;;;9.66;100.00
58385;BME280;44185;47.844;8.966;2023-05-11T02:02:46;95969.94;;;9.57;100.00
58385;BME280;44185;47.844;8.966;2023-05-11T02:05:14;95969.00;;;9.58;100.00
58385;BME280;44185;47.844;8.966;2023-05-11T02:07:42;95967.16;;;9.59;100.00
58385;BME280;44185;47.844;8.966;2023-05-11T02:10:10;95969.09;;;9.56;100.00
58385;BME280;44185;47.844;8.966;2023-05-11T02:12:36;95968.22;;;9.46;100.00
58385;BME280;44185;47.844;8.966;2023-05-11T02:15:03;95969.38;;;9.53;100.00
58385;BME280;44185;47.844;8.966;2023-05-11T02:17:29;95963.97;;;9.55;100.00
58385;BME280;44185;47.844;8.966;2023-05-11T02:19:58;95964.22;;;9.52;100.00
58385;BME280;44185;47.844;8.966;2023-05-11T02:22:25;95978.97;;;9.54;100.00
58385;BME280;44185;47.844;8.966;2023-05-11T02:24:52;95966.47;;;9.56;100.00
58385;BME280;44185;47.844;8.966;2023-05-11T02:27:17;95970.06;;;9.55;100.00
58385;BME280;44185;47.844;8.966;2023-05-11T02:29:43;95970.78;;;9.57;100.00
58385;BME280;44185;47.844;8.966;2023-05-11T02:32:12;95960.47;;;9.54;100.00
58385;BME280;44185;47.844;8.966;2023-05-11T02:34:42;95965.78;;;9.54;100.00
58385;BME280;44185;47.844;8.966;2023-05-11T02:37:12;95960.47;;;9.54;100.00
58385;BME280;44185;47.844;8.966;2023-05-11T02:39:40;95963.97;;;9.55;100.00
58385;BME280;44185;47.844;8.966;2023-05-11T02:42:12;95967.78;;;9.41;100.00
58385;BME280;44185;47.844;8.966;2023-05-11T02:44:44;95956.16;;;9.53;100.00
58385;BME280;44185;47.844;8.966;2023-05-11T02:47:13;95952.25;;;9.48;100.00
58385;BME280;44185;47.844;8.966;2023-05-11T02:49:41;95965.84;;;9.43;100.00
58385;BME280;44185;47.844;8.966;2023-05-11T02:52:07;95957.81;;;9.44;100.00
58385;BME280;44185;47.844;8.966;2023-05-11T02:54:36;95952.09;;;9.39;100.00
58385;BME280;44185;47.844;8.966;2023-05-11T02:57:03;95948.88;;;9.36;100.00
58385;BME280;44185;47.844;8.966;2023-05-11T02:59:29;95945.13;;;9.38;100.00
58385;BME280;44185;47.844;8.966;2023-05-11T03:01:55;95941.09;;;9.34;100.00
58385;BME280;44185;47.844;8.966;2023-05-11T03:04:21;95947.19;;;9.34;100.00
58385;BME280;44185;47.844;8.966;2023-05-11T03:06:47;95946.91;;;9.38;100.00
58385;BME280;44185;47.844;8.966;2023-05-11T03:09:12;95953.03;;;9.38;100.00
58385;BME280;44185;47.844;8.966;2023-05-11T03:11:39;95941.53;;;9.39;100.00
58385;BME280;44185;47.844;8.966;2023-05-11T03:14:05;95945.97;;;9.39;100.00
58385;BME280;44185;47.844;8.966;2023-05-11T03:16:33;95943.44;;;9.37;100.00
58385;BME280;44185;47.844;8.966;2023-05-11T03:18:59;95938.13;;;9.27;100.00
58385;BME280;44185;47.844;8.966;2023-05-11T03:21:26;95937.41;;;9.25;100.00
58385;BME280;44185;47.844;8.966;2023-05-11T03:23:51;95941.84;;;9.25;100.00
58385;BME280;44185;47.844;8.966;2023-05-11T03:26:18;95931.44;;;9.23;100.00
58385;BME280;44185;47.844;8.966;2023-05-11T03:28:47;95935.63;;;9.26;100.00
58385;BME280;44185;47.844;8.966;2023-05-11T03:31:12;95934.78;;;9.25;100.00
58385;BME280;44185;47.844;8.966;2023-05-11T03:33:38;95930.75;;;9.21;100.00
58385;BME280;44185;47.844;8.966;2023-05-11T03:36:04;95931.03;;;9.28;100.00
58385;BME280;44185;47.844;8.966;2023-05-11T03:38:31;95937.16;;;9.28;100.00
58385;BME280;44185;47.844;8.966;2023-05-11T03:40:59;95931.56;;;9.21;100.00
58385;BME280;44185;47.844;8.966;2023-05-11T03:43:25;95933.63;;;9.18;100.00
58385;BME280;44185;47.844;8.966;2023-05-11T03:45:55;95934.34;;;9.20;100.00
58385;BME280;44185;47.844;8.966;2023-05-11T03:48:21;95934.63;;;9.27;100.00
58385;BME280;44185;47.844;8.966;2023-05-11T03:50:47;95939.28;;;9.13;100.00
58385;BME280;44185;47.844;8.966;2023-05-11T03:53:14;95938.91;;;9.18;100.00
58385;BME280;44185;47.844;8.966;2023-05-11T03:55:40;95941.94;;;9.13;100.00
58385;BME280;44185;47.844;8.966;2023-05-11T03:58:06;95930.47;;;9.03;100.00
58385;BME280;44185;47.844;8.966;2023-05-11T04:00:32;95929.94;;;8.99;100.00
58385;BME280;44185;47.844;8.966;2023-05-11T04:03:02;95932.50;;;8.89;100.00
58385;BME280;44185;47.844;8.966;2023-05-11T04:05:28;95934.16;;;8.90;100.00
58385;BME280;44185;47.844;8.966;2023-05-11T04:07:54;95935.00;;;8.90;100.00
58385;BME280;44185;47.844;8.966;2023-05-11T04:10:19;95933.78;;;8.73;100.00
58385;BME280;44185;47.844;8.966;2023-05-11T04:12:44;95927.50;;;8.86;100.00
58385;BME280;44185;47.844;8.966;2023-05-11T04:15:10;95935.47;;;8.96;100.00
58385;BME280;44185;47.844;8.966;2023-05-11T04:17:35;95935.84;;;8.91;100.00
58385;BME280;44185;47.844;8.966;2023-05-11T04:20:03;95931.13;;;8.95;100.00
58385;BME280;44185;47.844;8.966;2023-05-11T04:22:28;95927.94;;;8.91;100.00
58385;BME280;44185;47.844;8.966;2023-05-11T04:24:54;95937.69;;;8.79;100.00
58385;BME280;44185;47.844;8.966;2023-05-11T04:27:19;95935.22;;;8.77;100.00
58385;BME280;44185;47.844;8.966;2023-05-11T04:29:44;95926.69;;;8.95;100.00
58385;BME280;44185;47.844;8.966;2023-05-11T04:32:10;95934.63;;;8.95;100.00
58385;BME280;44185;47.844;8.966;2023-05-11T04:34:35;95926.94;;;8.92;100.00
58385;BME280;44185;47.844;8.966;2023-05-11T04:37:02;95931.91;;;9.07;100.00
58385;BME280;44185;47.844;8.966;2023-05-11T04:39:27;95929.91;;;9.20;100.00
58385;BME280;44185;47.844;8.966;2023-05-11T04:41:53;95941.84;;;9.25;100.00
58385;BME280;44185;47.844;8.966;2023-05-11T04:44:18;95932.31;;;9.33;100.00
58385;BME280;44185;47.844;8.966;2023-05-11T04:46:44;95933.88;;;9.36;100.00
58385;BME280;44185;47.844;8.966;2023-05-11T04:49:09;95930.97;;;9.39;100.00
58385;BME280;44185;47.844;8.966;2023-05-11T04:51:34;95939.53;;;9.31;100.00
58385;BME280;44185;47.844;8.966;2023-05-11T04:54:01;95934.25;;;9.31;100.00
58385;BME280;44185;47.844;8.966;2023-05-11T04:56:27;95932.59;;;9.30;100.00
58385;BME280;44185;47.844;8.966;2023-05-11T04:58:52;95928.25;;;9.29;100.00
58385;BME280;44185;47.844;8.966;2023-05-11T05:01:17;95937.59;;;9.33;100.00
58385;BME280;44185;47.844;8.966;2023-05-11T05:03:43;95933.88;;;9.36;100.00
58385;BME280;44185;47.844;8.966;2023-05-11T05:06:11;95932.06;;;9.37;100.00
58385;BME280;44185;47.844;8.966;2023-05-11T05:08:37;95936.78;;;9.43;100.00
58385;BME280;44185;47.844;8.966;2023-05-11T05:11:04;95941.66;;;9.48;100.00
58385;BME280;44185;47.844;8.966;2023-05-11T05:13:29;95938.66;;;9.52;100.00
58385;BME280;44185;47.844;8.966;2023-05-11T05:15:54;95936.72;;;9.54;100.00
58385;BME280;44185;47.844;8.966;2023-05-11T05:18:20;95933.19;;;9.44;100.00
58385;BME280;44185;47.844;8.966;2023-05-11T05:20:47;95936.91;;;9.31;100.00
58385;BME280;44185;47.844;8.966;2023-05-11T05:23:12;95934.25;;;9.31;100.00
58385;BME280;44185;47.844;8.966;2023-05-11T05:25:37;95934.56;;;9.38;100.00
58385;BME280;44185;47.844;8.966;2023-05-11T05:28:04;95937.50;;;9.45;100.00
58385;BME280;44185;47.844;8.966;2023-05-11T05:30:30;95944.44;;;9.36;100.00
58385;BME280;44185;47.844;8.966;2023-05-11T05:32:55;95946.69;;;9.19;100.00
58385;BME280;44185;47.844;8.966;2023-05-11T05:35:21;95950.66;;;9.35;100.00
58385;BME280;44185;47.844;8.966;2023-05-11T05:37:47;95950.00;;;9.43;100.00
58385;BME280;44185;47.844;8.966;2023-05-11T05:40:12;95949.47;;;9.49;100.00
58385;BME280;44185;47.844;8.966;2023-05-11T05:42:38;95948.94;;;9.55;100.00
58385;BME280;44185;47.844;8.966;2023-05-11T05:45:06;95950.03;;;9.53;100.00
58385;BME280;44185;47.844;8.966;2023-05-11T05:47:32;95948.28;;;9.63;100.00
58385;BME280;44185;47.844;8.966;2023-05-11T05:49:57;95951.47;;;9.67;100.00
58385;BME280;44185;47.844;8.966;2023-05-11T05:52:23;95949.66;;;9.57;100.00
58385;BME280;44185;47.844;8.966;2023-05-11T05:54:48;95951.06;;;9.62;100.00
58385;BME280;44185;47.844;8.966;2023-05-11T05:57:13;95954.81;;;9.69;100.00
58385;BME280;44185;47.844;8.966;2023-05-11T05:59:39;95951.25;;;9.80;100.00
58385;BME280;44185;47.844;8.966;2023-05-11T06:02:06;95960.59;;;9.84;100.00
58385;BME280;44185;47.844;8.966;2023-05-11T06:04:32;95953.13;;;9.58;100.00
58385;BME280;44185;47.844;8.966;2023-05-11T06:06:57;95955.53;;;9.40;100.00
58385;BME280;44185;47.844;8.966;2023-05-11T06:09:23;95956.03;;;9.23;100.00
58385;BME280;44185;47.844;8.966;2023-05-11T06:11:48;95961.22;;;9.35;100.00
58385;BME280;44185;47.844;8.966;2023-05-11T06:14:14;95955.72;;;9.48;100.00
58385;BME280;44185;47.844;8.966;2023-05-11T06:16:39;95958.56;;;9.66;100.00
58385;BME280;44185;47.844;8.966;2023-05-11T06:19:06;95955.38;;;9.63;100.00
58385;BME280;44185;47.844;8.966;2023-05-11T06:21:32;95958.88;;;9.73;100.00
58385;BME280;44185;47.844;8.966;2023-05-11T06:23:57;95965.16;;;9.82;100.00
58385;BME280;44185;47.844;8.966;2023-05-11T06:26:23;95962.81;;;9.89;100.00
58385;BME280;44185;47.844;8.966;2023-05-11T06:28:48;95955.06;;;9.97;100.00
58385;BME280;44185;47.844;8.966;2023-05-11T06:31:14;95954.22;;;9.97;100.00
58385;BME280;44185;47.844;8.966;2023-05-11T06:33:39;95957.09;;;9.84;100.00
58385;BME280;44185;47.844;8.966;2023-05-11T06:36:06;95960.47;;;9.96;100.00
58385;BME280;44185;47.844;8.966;2023-05-11T06:38:32;95959.25;;;10.00;100.00
58385;BME280;44185;47.844;8.966;2023-05-11T06:40:57;95951.91;;;10.14;100.00
58385;BME280;44185;47.844;8.966;2023-05-11T06:43:23;95955.09;;;10.17;100.00
58385;BME280;44185;47.844;8.966;2023-05-11T06:45:49;95948.16;;;10.16;100.00
58385;BME280;44185;47.844;8.966;2023-05-11T06:48:14;95952.88;;;10.22;100.00
58385;BME280;44185;47.844;8.966;2023-05-11T06:50:39;95947.88;;;10.29;100.00
58385;BME280;44185;47.844;8.966;2023-05-11T06:53:06;95939.66;;;10.32;100.00
58385;BME280;44185;47.844;8.966;2023-05-11T06:55:32;95947.34;;;10.45;100.00
58385;BME280;44185;47.844;8.966;2023-05-11T06:57:57;95948.69;;;10.30;100.00
58385;BME280;44185;47.844;8.966;2023-05-11T07:00:23;95942.72;;;10.18;100.00
58385;BME280;44185;47.844;8.966;2023-05-11T07:02:48;95945.50;;;10.26;100.00
58385;BME280;44185;47.844;8.966;2023-05-11T07:05:14;95950.69;;;10.38;100.00
58385;BME280;44185;47.844;8.966;2023-05-11T07:07:39;95957.19;;;10.23;100.00
58385;BME280;44185;47.844;8.966;2023-05-11T07:10:07;95951.91;;;10.23;100.00
58385;BME280;44185;47.844;8.966;2023-05-11T07:12:33;95956.19;;;10.24;100.00
58385;BME280;44185;47.844;8.966;2023-05-11T07:14:58;95949.94;;;10.06;100.00
58385;BME280;44185;47.844;8.966;2023-05-11T07:17:23;95949.38;;;10.02;100.00
58385;BME280;44185;47.844;8.966;2023-05-11T07:19:49;95952.00;;;10.12;100.00
58385;BME280;44185;47.844;8.966;2023-05-11T07:22:14;95952.75;;;10.34;100.00
58385;BME280;44185;47.844;8.966;2023-05-11T07:24:40;95955.94;;;10.28;100.00
58385;BME280;44185;47.844;8.966;2023-05-11T07:27:06;95961.38;;;10.46;100.00
58385;BME280;44185;47.844;8.966;2023-05-11T07:29:32;95952.94;;;10.52;100.00
58385;BME280;44185;47.844;8.966;2023-05-11T07:31:57;95953.16;;;10.29;100.00
58385;BME280;44185;47.844;8.966;2023-05-11T07:34:23;95954.81;;;10.20;100.00
58385;BME280;44185;47.844;8.966;2023-05-11T07:36:48;95951.09;;;10.43;100.00
58385;BME280;44185;47.844;8.966;2023-05-11T07:39:14;95948.00;;;10.18;100.00
58385;BME280;44185;47.844;8.966;2023-05-11T07:41:39;95949.63;;;10.09;100.00
58385;BME280;44185;47.844;8.966;2023-05-11T07:44:06;95950.09;;;10.44;100.00
58385;BME280;44185;47.844;8.966;2023-05-11T07:46:32;95948.47;;;10.63;100.00
58385;BME280;44185;47.844;8.966;2023-05-11T07:48:57;95944.66;;;10.26;100.00
58385;BME280;44185;47.844;8.966;2023-05-11T07:51:23;95942.59;;;10.59;100.00
58385;BME280;44185;47.844;8.966;2023-05-11T07:53:48;95939.84;;;10.61;100.00
58385;BME280;44185;47.844;8.966;2023-05-11T07:56:14;95942.16;;;10.44;100.00
58385;BME280;44185;47.844;8.966;2023-05-11T07:58:39;95942.31;;;10.42;100.00
58385;BME280;44185;47.844;8.966;2023-05-11T08:01:06;95949.56;;;10.50;100.00
58385;BME280;44185;47.844;8.966;2023-05-11T08:03:32;95947.03;;;10.29;100.00
58385;BME280;44185;47.844;8.966;2023-05-11T08:05:57;95952.22;;;10.40;100.00
58385;BME280;44185;47.844;8.966;2023-05-11T08:08:23;95938.28;;;10.48;100.00
58385;BME280;44185;47.844;8.966;2023-05-11T08:10:49;95940.75;;;10.30;100.00
58385;BME280;44185;47.844;8.966;2023-05-11T08:13:14;95939.66;;;10.32;100.00
58385;BME280;44185;47.844;8.966;2023-05-11T08:15:40;95935.25;;;10.53;100.00
58385;BME280;44185;47.844;8.966;2023-05-11T08:18:06;95933.28;;;10.35;100.00
58385;BME280;44185;47.844;8.966;2023-05-11T08:20:32;95933.94;;;10.17;100.00
58385;BME280;44185;47.844;8.966;2023-05-11T08:22:57;95931.59;;;10.34;100.00
58385;BME280;44185;47.844;8.966;2023-05-11T08:25:23;95935.91;;;10.45;100.00
58385;BME280;44185;47.844;8.966;2023-05-11T08:27:48;95924.81;;;10.61;100.00
58385;BME280;44185;47.844;8.966;2023-05-11T08:30:14;95932.19;;;10.57;100.00
58385;BME280;44185;47.844;8.966;2023-05-11T08:32:39;95926.19;;;10.55;100.00
58385;BME280;44185;47.844;8.966;2023-05-11T08:35:07;95929.81;;;10.74;100.00
58385;BME280;44185;47.844;8.966;2023-05-11T08:37:32;95928.69;;;10.77;100.00
58385;BME280;44185;47.844;8.966;2023-05-11T08:39:58;95932.56;;;10.73;100.00
58385;BME280;44185;47.844;8.966;2023-05-11T08:42:24;95928.41;;;10.70;100.00
58385;BME280;44185;47.844;8.966;2023-05-11T08:44:54;95930.63;;;10.65;100.00
58385;BME280;44185;47.844;8.966;2023-05-11T08:47:19;95929.94;;;10.73;100.00
58385;BME280;44185;47.844;8.966;2023-05-11T08:49:45;95930.34;;;10.88;100.00
58385;BME280;44185;47.844;8.966;2023-05-11T08:52:13;95930.59;;;10.95;100.00
58385;BME280;44185;47.844;8.966;2023-05-11T08:54:40;95932.28;;;10.96;100.00
58385;BME280;44185;47.844;8.966;2023-05-11T08:57:05;95931.41;;;11.05;100.00
58385;BME280;44185;47.844;8.966;2023-05-11T08:59:32;95930.84;;;11.11;100.00
58385;BME280;44185;47.844;8.966;2023-05-11T09:01:58;95931.25;;;11.07;100.00
58385;BME280;44185;47.844;8.966;2023-05-11T09:04:25;95934.91;;;11.06;100.00
58385;BME280;44185;47.844;8.966;2023-05-11T09:06:51;95933.50;;;11.11;100.00
58385;BME280;44185;47.844;8.966;2023-05-11T09:09:18;95929.44;;;11.07;100.00
58385;BME280;44185;47.844;8.966;2023-05-11T09:11:44;95930.44;;;10.96;100.00
58385;BME280;44185;47.844;8.966;2023-05-11T09:14:10;95929.06;;;10.92;100.00
58385;BME280;44185;47.844;8.966;2023-05-11T09:16:35;95930.88;;;10.92;100.00
58385;BME280;44185;47.844;8.966;2023-05-11T09:19:00;95928.63;;;10.97;100.00
58385;BME280;44185;47.844;8.966;2023-05-11T09:21:26;95926.59;;;10.90;100.00
58385;BME280;44185;47.844;8.966;2023-05-11T09:23:55;95918.38;;;10.74;100.00
58385;BME280;44185;47.844;8.966;2023-05-11T09:26:22;95915.88;;;10.82;100.00
58385;BME280;44185;47.844;8.966;2023-05-11T09:28:47;95920.16;;;10.93;100.00
58385;BME280;44185;47.844;8.966;2023-05-11T09:31:33;95914.44;;;10.98;100.00
58385;BME280;44185;47.844;8.966;2023-05-11T09:34:10;95912.88;;;11.05;100.00
58385;BME280;44185;47.844;8.966;2023-05-11T09:36:36;95919.38;;;11.21;100.00
58385;BME280;44185;47.844;8.966;2023-05-11T09:39:03;95910.88;;;11.27;100.00
58385;BME280;44185;47.844;8.966;2023-05-11T09:41:30;95907.09;;;11.30;100.00
58385;BME280;44185;47.844;8.966;2023-05-11T09:44:03;95904.03;;;11.25;100.00
58385;BME280;44185;47.844;8.966;2023-05-11T09:46:28;95897.19;;;11.32;100.00
58385;BME280;44185;47.844;8.966;2023-05-11T09:48:58;95897.53;;;11.47;100.00
58385;BME280;44185;47.844;8.966;2023-05-11T09:51:28;95894.31;;;11.15;100.00
58385;BME280;44185;47.844;8.966;2023-05-11T09:53:54;95896.09;;;11.25;100.00
58385;BME280;44185;47.844;8.966;2023-05-11T09:56:19;95895.81;;;11.28;100.00
58385;BME280;44185;47.844;8.966;2023-05-11T09:58:48;95897.13;;;11.42;100.00
58385;BME280;44185;47.844;8.966;2023-05-11T10:01:14;95889.56;;;11.19;100.00
58385;BME280;44185;47.844;8.966;2023-05-11T10:03:50;95885.56;;;11.05;100.00
58385;BME280;44185;47.844;8.966;2023-05-11T10:06:16;95892.81;;;11.03;100.00
58385;BME280;44185;47.844;8.966;2023-05-11T10:08:41;95886.84;;;11.00;100.00
58385;BME280;44185;47.844;8.966;2023-05-11T10:11:07;95892.28;;;11.37;100.00
58385;BME280;44185;47.844;8.966;2023-05-11T10:13:33;95895.78;;;11.66;100.00
58385;BME280;44185;47.844;8.966;2023-05-11T10:16:01;95897.69;;;11.74;100.00
58385;BME280;44185;47.844;8.966;2023-05-11T10:18:27;95899.66;;;11.72;100.00
58385;BME280;44185;47.844;8.966;2023-05-11T10:20:54;95901.75;;;11.96;100.00
58385;BME280;44185;47.844;8.966;2023-05-11T10:23:19;95905.00;;;12.08;100.00
58385;BME280;44185;47.844;8.966;2023-05-11T10:25:45;95900.78;;;12.16;100.00
58385;BME280;44185;47.844;8.966;2023-05-11T10:28:11;95899.91;;;12.25;100.00
58385;BME280;44185;47.844;8.966;2023-05-11T10:30:36;95897.06;;;12.45;100.00
58385;BME280;44185;47.844;8.966;2023-05-11T10:33:05;95894.59;;;12.43;100.00
58385;BME280;44185;47.844;8.966;2023-05-11T10:35:30;95889.22;;;12.35;100.00
58385;BME280;44185;47.844;8.966;2023-05-11T10:37:56;95890.41;;;12.41;100.00
58385;BME280;44185;47.844;8.966;2023-05-11T10:40:22;95886.47;;;12.45;100.00
58385;BME280;44185;47.844;8.966;2023-05-11T10:43:15;95884.91;;;12.79;100.00
58385;BME280;44185;47.844;8.966;2023-05-11T10:45:51;95886.00;;;12.68;100.00
58385;BME280;44185;47.844;8.966;2023-05-11T10:51:53;95886.44;;;12.82;100.00
58385;BME280;44185;47.844;8.966;2023-05-11T10:54:31;95884.16;;;12.87;98.27
58385;BME280;44185;47.844;8.966;2023-05-11T10:57:11;95879.94;;;13.03;99.24
58385;BME280;44185;47.844;8.966;2023-05-11T11:00:03;95876.25;;;13.04;96.89
58385;BME280;44185;47.844;8.966;2023-05-11T11:02:36;95880.44;;;13.06;98.41
58385;BME280;44185;47.844;8.966;2023-05-11T11:05:04;95881.25;;;13.07;100.00
58385;BME280;44185;47.844;8.966;2023-05-11T11:07:30;95880.44;;;13.06;100.00
58385;BME280;44185;47.844;8.966;2023-05-11T11:09:57;95878.91;;;13.30;100.00
58385;BME280;44185;47.844;8.966;2023-05-11T11:12:23;95867.25;;;13.23;100.00
58385;BME280;44185;47.844;8.966;2023-05-11T11:14:56;95865.56;;;13.22;98.10
58385;BME280;44185;47.844;8.966;2023-05-11T11:17:23;95870.06;;;13.21;98.49
58385;BME280;44185;47.844;8.966;2023-05-11T11:19:49;95862.53;;;13.08;99.73
58385;BME280;44185;47.844;8.966;2023-05-11T11:22:45;95864.44;;;12.98;100.00
58385;BME280;44185;47.844;8.966;2023-05-11T11:25:11;95858.81;;;13.01;100.00
58385;BME280;44185;47.844;8.966;2023-05-11T11:27:55;95854.91;;;13.14;100.00
58385;BME280;44185;47.844;8.966;2023-05-11T11:30:22;95857.06;;;13.10;100.00
58385;BME280;44185;47.844;8.966;2023-05-11T11:32:49;95856.69;;;13.05;100.00
58385;BME280;44185;47.844;8.966;2023-05-11T11:35:45;95859.41;;;13.13;99.51
58385;BME280;44185;47.844;8.966;2023-05-11T11:38:13;95855.94;;;13.21;100.00
58385;BME280;44185;47.844;8.966;2023-05-11T11:40:40;95850.81;;;13.28;100.00
58385;BME280;44185;47.844;8.966;2023-05-11T11:43:10;95850.38;;;13.41;100.00
58385;BME280;44185;47.844;8.966;2023-05-11T11:45:37;95848.03;;;13.29;100.00
58385;BME280;44185;47.844;8.966;2023-05-11T11:48:10;95844.13;;;13.15;100.00
58385;BME280;44185;47.844;8.966;2023-05-11T11:50:38;95844.06;;;13.07;98.41
58385;BME280;44185;47.844;8.966;2023-05-11T11:53:03;95842.59;;;12.77;94.03
58385;BME280;44185;47.844;8.966;2023-05-11T11:55:49;95839.25;;;13.02;95.68
58385;BME280;44185;47.844;8.966;2023-05-11T12:01:24;95846.47;;;13.18;95.45
58385;BME280;44185;47.844;8.966;2023-05-11T12:04:08;95840.97;;;13.55;93.76
58385;BME280;44185;47.844;8.966;2023-05-11T12:06:36;95844.34;;;13.65;89.81
58385;BME280;44185;47.844;8.966;2023-05-11T12:09:02;95842.53;;;13.66;91.39
58385;BME280;44185;47.844;8.966;2023-05-11T12:11:29;95847.81;;;13.57;89.95
58385;BME280;44185;47.844;8.966;2023-05-11T12:13:55;95851.53;;;13.38;91.50
58385;BME280;44185;47.844;8.966;2023-05-11T12:16:20;95854.59;;;13.17;88.99
58385;BME280;44185;47.844;8.966;2023-05-11T12:18:51;95846.94;;;13.14;89.41
58385;BME280;44185;47.844;8.966;2023-05-11T12:21:20;95850.94;;;13.18;89.74
58385;BME280;44185;47.844;8.966;2023-05-11T12:23:51;95851.69;;;13.37;89.74
58385;BME280;44185;47.844;8.966;2023-05-11T12:26:19;95855.91;;;13.48;93.27
58385;BME280;44185;47.844;8.966;2023-05-11T12:28:46;95850.47;;;13.57;91.05
58385;BME280;44185;47.844;8.966;2023-05-11T12:31:11;95848.78;;;13.56;91.84
58385;BME280;44185;47.844;8.966;2023-05-11T12:33:44;95854.44;;;13.53;89.49
58385;BME280;44185;47.844;8.966;2023-05-11T12:36:13;95849.63;;;13.57;88.25
58385;BME280;44185;47.844;8.966;2023-05-11T12:38:42;95846.53;;;13.78;91.48
58385;BME280;44185;47.844;8.966;2023-05-11T12:41:08;95850.44;;;14.01;89.25
58385;BME280;44185;47.844;8.966;2023-05-11T12:43:33;95846.84;;;13.67;92.20
58385;BME280;44185;47.844;8.966;2023-05-11T12:46:01;95845.28;;;13.48;90.78
58385;BME280;44185;47.844;8.966;2023-05-11T12:48:27;95846.97;;;13.57;90.97
58385;BME280;44185;47.844;8.966;2023-05-11T12:50:52;95846.06;;;13.40;93.00
58385;BME280;44185;47.844;8.966;2023-05-11T12:53:18;95835.97;;;13.08;93.61
58385;BME280;44185;47.844;8.966;2023-05-11T12:55:44;95843.28;;;13.15;93.87
58385;BME280;44185;47.844;8.966;2023-05-11T12:58:11;95833.22;;;12.92;93.67
58385;BME280;44185;47.844;8.966;2023-05-11T13:00:49;95829.53;;;12.84;92.14
58385;BME280;44185;47.844;8.966;2023-05-11T13:03:19;95827.66;;;12.76;95.88
58385;BME280;44185;47.844;8.966;2023-05-11T13:05:45;95820.41;;;12.87;94.46